메인 페이지
METAR-TAF:

METAR-TAF

공항 :

아리, 터키

위도: 39-39-16N, 경도: 43-01-38E, 고도: 1665m

현재 날씨관측

예보는 53분 전, 09:50시(UTC)에 발표되었습니다.
여러 방향의 바람 2kt
온도 -18°C
습도 84%
기압 1017 hPa
시정: 1200m
고도 2000ft 상공 구름 조금
고도 7000ft 상공 구름 많음
박무

METAR: LTCO 180950Z VRB02KT 1200 R16/1300N R34/1200N BR FEW020 BKN070 M18/M20 Q1017

시각: 13:43 (10:43 UTC)

예보

예보는 21분 전, 10:22시(UTC)에 발표되었습니다.
예보 대상 시간: 18일 10시부터 18일 18시까지 (UTC)
여러 방향의 바람 2kt
시정: 1200m
고도 2000ft 상공 구름 조금
고도 7000ft 상공 구름 많음
박무
전환 중
18일 11시부터 18일 13시까지 (UTC)
시정: 2500m
고도 2000ft 상공 구름 많음
고도 7000ft 상공 구름 많음
확률 30% :
일시적
18일 14시부터 18일 17시까지 (UTC)
시정: 0400m
고도 100ft 상공
어는 안개

TAF: LTCO 181022Z 1810/1818 VRB02KT 1200 BR FEW020 BKN070 BECMG 1811/1813 2500 BKN020 BKN070 PROB30 TEMPO 1814/1817 0400 FZFG VV001

4,000개 이상의 공항 관측 자료 및 예보 (METAR 및 TAF 보고).

지도상에서 검색 가능한 기상관측소가 노란 점과 빨간 점으로 표시되어 있습니다.

기상관측소 명을 보려면 표시 위로 마우스를 이동하세요.

날씨 관측과 예보를 보려면 클릭하세요.

지도 변경 : 확대하려면 엑스 표시가 있는 녹색 버튼, 축소하려면 빼기 표시가 있는 녹색 버튼, 다음 페이지의 지도를 보려면 녹색 화살표를 클릭하세요.


METAR-TAF: